Rubiacea, Brazil
Current Conditions -  °F | °C
As of 4:00 PM on Tuesday 27 Jan 2015 (Local Time) from SBDN Reporting Station
Scattered Clouds Scattered Clouds  
Wind Chill: 81°   Ceiling: Unl
Heat Index: 83°   Visibility: 6mi
Dew Point: 68°   Wind: 6mph
Humidity: 65%   Direction: 360°N
Pressure: 29.88"   Gusts: NA
Location:  21.3°S, 50.73°W
Report Text: SBDN 271800Z 36005KT 9999 SCT020 27/20 Q1012
Loading
Personal Weather Stations






























Interactive Weather Map New forecast layout! Learn more

10-Day Weather Forecast

Advertisements
Track Severe Weather on mobile